Time;durP1;ratioP1;P1;durP2;ratioP2;P2;SDS_P1;SDS_P2;PMS_P1;PMS_P2;Temp;Humidity;BMP_temperature;BMP_pressure;BME280_temperature;BME280_humidity;BME280_pressure;Samples;Min_cycle;Max_cycle;Signal;HPM_P1;HPM_P2
2021/05/27 00:01:40;;;;;;;0.40;0.40;;;;;;;;;;5010869;28;20312;-63
2021/05/27 00:04:07;;;;;;;0.20;0.20;;;;;;;;;;5005353;28;20233;-64
2021/05/27 00:06:33;;;;;;;0.00;0.00;;;;;;;;;;5007079;28;20267;-63
2021/05/27 00:09:00;;;;;;;0.13;0.07;;;;;;;;;;5012464;28;20250;-64
2021/05/27 00:11:27;;;;;;;1.43;0.27;;;;;;;;;;5009612;28;20286;-64
2021/05/27 00:13:53;;;;;;;0.00;0.00;;;;;;;;;;5011088;28;20188;-64
2021/05/27 00:16:20;;;;;;;0.00;0.00;;;;;;;;;;5003474;28;20709;-64
2021/05/27 00:18:51;;;;;;;1.23;0.43;;;;;;;;;;5006272;28;20251;-64
2021/05/27 00:21:18;;;;;;;3.30;0.57;;;;;;;;;;5002641;28;20192;-64
2021/05/27 00:23:46;;;;;;;0.53;0.53;;;;;;;;;;5006811;28;20279;-64
2021/05/27 00:26:12;;;;;;;0.30;0.30;;;;;;;;;;5012960;28;20215;-64
2021/05/27 00:28:39;;;;;;;5.27;0.87;;;;;;;;;;5003230;28;20191;-64
2021/05/27 00:31:06;;;;;;;0.60;0.60;;;;;;;;;;5008574;28;20189;-64
2021/05/27 00:33:32;;;;;;;0.00;0.00;;;;;;;;;;5005683;28;20196;-64
2021/05/27 00:35:59;;;;;;;0.00;0.00;;;;;;;;;;5011923;28;20185;-64
2021/05/27 00:38:26;;;;;;;0.80;0.80;;;;;;;;;;5009739;28;20193;-65
2021/05/27 00:40:52;;;;;;;0.00;0.00;;;;;;;;;;5009667;28;20188;-65
2021/05/27 00:43:19;;;;;;;4.80;1.60;;;;;;;;;;5000513;28;20548;-63
2021/05/27 00:45:46;;;;;;;0.30;0.30;;;;;;;;;;5001982;28;20213;-63
2021/05/27 00:50:58;;;;;;;0.77;0.10;;;;;;;;;;4998895;28;20603;-63
2021/05/27 00:53:26;;;;;;;0.03;0.03;;;;;;;;;;4998557;28;20243;-63
2021/05/27 00:55:53;;;;;;;0.00;0.00;;;;;;;;;;5006088;28;20205;-63
2021/05/27 00:58:21;;;;;;;0.00;0.00;;;;;;;;;;5001530;28;20189;-64
2021/05/27 01:00:48;;;;;;;0.00;0.00;;;;;;;;;;4999894;28;20250;-63
2021/05/27 01:03:14;;;;;;;0.00;0.00;;;;;;;;;;4999615;28;20560;-63
2021/05/27 01:05:41;;;;;;;0.00;0.00;;;;;;;;;;4996320;28;20243;-62
2021/05/27 01:08:07;;;;;;;0.53;0.47;;;;;;;;;;4999942;28;20263;-62
2021/05/27 01:10:36;;;;;;;0.00;0.00;;;;;;;;;;5004137;28;20189;-62
2021/05/27 01:13:03;;;;;;;0.00;0.00;;;;;;;;;;4999883;28;20196;-62
2021/05/27 01:15:34;;;;;;;0.00;0.00;;;;;;;;;;5003694;28;20199;-62
2021/05/27 01:18:21;;;;;;;0.00;0.00;;;;;;;;;;5004814;28;20365;-62
2021/05/27 01:20:49;;;;;;;0.00;0.00;;;;;;;;;;5008384;28;20917;-62
2021/05/27 01:23:16;;;;;;;0.10;0.10;;;;;;;;;;5005907;28;20188;-62
2021/05/27 01:25:45;;;;;;;0.07;0.07;;;;;;;;;;5001625;28;20205;-62
2021/05/27 01:28:11;;;;;;;2.53;1.03;;;;;;;;;;5008539;28;20194;-62
2021/05/27 01:30:38;;;;;;;0.30;0.27;;;;;;;;;;4992522;28;20227;-62
2021/05/27 01:33:05;;;;;;;0.00;0.00;;;;;;;;;;4995361;28;20956;-62
2021/05/27 01:35:32;;;;;;;0.00;0.00;;;;;;;;;;4998459;28;20180;-63
2021/05/27 01:37:58;;;;;;;5.53;0.50;;;;;;;;;;5004927;28;20878;-63
2021/05/27 01:40:26;;;;;;;0.00;0.00;;;;;;;;;;5009451;28;20177;-62
2021/05/27 01:42:55;;;;;;;0.10;0.10;;;;;;;;;;5006476;28;20196;-62
2021/05/27 01:45:21;;;;;;;0.53;0.53;;;;;;;;;;5006362;28;20239;-63
2021/05/27 01:47:48;;;;;;;0.37;0.37;;;;;;;;;;4999170;28;20324;-62
2021/05/27 01:50:20;;;;;;;0.00;0.00;;;;;;;;;;5015133;28;20207;-62
2021/05/27 01:52:48;;;;;;;0.00;0.00;;;;;;;;;;5010881;28;20748;-62
2021/05/27 01:55:15;;;;;;;0.20;0.20;;;;;;;;;;5008596;28;20208;-63
2021/05/27 01:57:41;;;;;;;0.10;0.10;;;;;;;;;;5012700;28;20176;-63
2021/05/27 02:00:08;;;;;;;0.00;0.00;;;;;;;;;;5015591;28;20184;-63
2021/05/27 02:02:35;;;;;;;0.00;0.00;;;;;;;;;;5015397;28;20234;-64
2021/05/27 02:05:02;;;;;;;0.27;0.27;;;;;;;;;;5008565;28;20429;-63
2021/05/27 02:07:29;;;;;;;0.00;0.00;;;;;;;;;;5016261;28;20905;-63
2021/05/27 02:09:55;;;;;;;0.00;0.00;;;;;;;;;;5010869;28;20185;-63
2021/05/27 02:12:22;;;;;;;0.00;0.00;;;;;;;;;;5008702;28;20177;-63
2021/05/27 02:14:49;;;;;;;1.80;0.20;;;;;;;;;;5012178;28;20277;-63
2021/05/27 02:17:15;;;;;;;0.00;0.00;;;;;;;;;;5021717;28;20196;-63
2021/05/27 02:19:42;;;;;;;1.00;0.77;;;;;;;;;;5007270;28;20181;-63
2021/05/27 02:22:09;;;;;;;3.60;3.50;;;;;;;;;;5001826;28;20190;-63
2021/05/27 02:24:35;;;;;;;0.73;0.73;;;;;;;;;;5000730;28;20223;-63
2021/05/27 02:27:03;;;;;;;0.00;0.00;;;;;;;;;;5002678;28;20192;-63
2021/05/27 02:29:29;;;;;;;0.00;0.00;;;;;;;;;;5001431;28;20169;-63
2021/05/27 02:31:56;;;;;;;0.00;0.00;;;;;;;;;;5002413;28;20273;-63
2021/05/27 02:34:23;;;;;;;0.00;0.00;;;;;;;;;;5001156;28;20189;-63
2021/05/27 02:36:49;;;;;;;0.30;0.30;;;;;;;;;;5001840;28;20169;-63
2021/05/27 02:39:17;;;;;;;0.00;0.00;;;;;;;;;;5001770;28;20173;-63
2021/05/27 02:41:44;;;;;;;0.00;0.00;;;;;;;;;;5001974;28;20177;-63
2021/05/27 02:44:11;;;;;;;0.00;0.00;;;;;;;;;;5001517;28;20172;-63
2021/05/27 02:46:37;;;;;;;0.00;0.00;;;;;;;;;;5002468;28;20263;-63
2021/05/27 02:49:06;;;;;;;0.50;0.50;;;;;;;;;;5002590;28;20199;-63
2021/05/27 02:51:33;;;;;;;1.03;0.63;;;;;;;;;;5003161;28;20180;-62
2021/05/27 02:53:59;;;;;;;0.00;0.00;;;;;;;;;;4993745;28;20188;-62
2021/05/27 02:56:26;;;;;;;0.00;0.00;;;;;;;;;;5003498;28;20191;-62
2021/05/27 02:58:54;;;;;;;0.00;0.00;;;;;;;;;;5005908;28;20185;-62
2021/05/27 03:01:21;;;;;;;0.10;0.10;;;;;;;;;;5001275;28;20177;-62
2021/05/27 03:03:47;;;;;;;0.00;0.00;;;;;;;;;;4999695;28;20193;-62
2021/05/27 03:06:14;;;;;;;0.00;0.00;;;;;;;;;;5001934;28;20212;-62
2021/05/27 03:08:41;;;;;;;0.00;0.00;;;;;;;;;;5001909;28;20239;-63
2021/05/27 03:11:08;;;;;;;0.00;0.00;;;;;;;;;;5001684;28;20594;-62
2021/05/27 03:13:35;;;;;;;0.00;0.00;;;;;;;;;;5005394;28;20266;-62
2021/05/27 03:16:02;;;;;;;0.00;0.00;;;;;;;;;;5000398;28;20220;-62
2021/05/27 03:18:30;;;;;;;0.53;0.53;;;;;;;;;;5000652;28;20173;-62
2021/05/27 03:20:58;;;;;;;0.10;0.10;;;;;;;;;;4991947;28;20873;-62
2021/05/27 03:23:24;;;;;;;0.00;0.00;;;;;;;;;;5002520;28;20199;-62
2021/05/27 03:25:51;;;;;;;0.00;0.00;;;;;;;;;;5001372;28;20212;-63
2021/05/27 03:28:18;;;;;;;0.00;0.00;;;;;;;;;;5002903;28;20208;-63
2021/05/27 03:30:44;;;;;;;0.00;0.00;;;;;;;;;;5010136;28;20180;-63
2021/05/27 03:33:11;;;;;;;0.03;0.03;;;;;;;;;;5010399;28;20189;-63
2021/05/27 03:35:38;;;;;;;0.93;0.87;;;;;;;;;;5000159;28;20208;-63
2021/05/27 03:38:04;;;;;;;0.77;0.27;;;;;;;;;;5002165;28;20231;-63
2021/05/27 03:40:31;;;;;;;0.00;0.00;;;;;;;;;;4999939;28;20185;-63
2021/05/27 03:42:58;;;;;;;3.70;1.13;;;;;;;;;;5001272;28;20182;-63
2021/05/27 03:45:28;;;;;;;0.43;0.17;;;;;;;;;;4997952;28;20214;-63
2021/05/27 03:47:55;;;;;;;3.40;2.00;;;;;;;;;;5006409;28;20173;-62
2021/05/27 03:50:23;;;;;;;0.17;0.17;;;;;;;;;;5002200;28;20212;-63
2021/05/27 03:52:50;;;;;;;0.00;0.00;;;;;;;;;;5001673;28;20640;-63
2021/05/27 03:55:17;;;;;;;0.00;0.00;;;;;;;;;;5001993;28;20196;-62
2021/05/27 03:57:48;;;;;;;0.33;0.33;;;;;;;;;;4999653;28;20231;-63
2021/05/27 04:03:03;;;;;;;0.00;0.00;;;;;;;;;;4999118;28;20235;-63
2021/05/27 04:08:16;;;;;;;0.00;0.00;;;;;;;;;;5001068;28;20196;-62
2021/05/27 04:10:43;;;;;;;0.00;0.00;;;;;;;;;;5001564;28;20932;-62
2021/05/27 04:13:10;;;;;;;0.00;0.00;;;;;;;;;;4999801;28;20615;-62
2021/05/27 04:15:38;;;;;;;0.20;0.20;;;;;;;;;;4999306;28;20178;-63
2021/05/27 04:18:14;;;;;;;0.10;0.10;;;;;;;;;;4998970;28;20193;-63
2021/05/27 04:20:54;;;;;;;0.00;0.00;;;;;;;;;;4998500;28;20856;-62
2021/05/27 04:23:39;;;;;;;0.73;0.30;;;;;;;;;;4997734;28;20452;-62
2021/05/27 04:26:15;;;;;;;0.00;0.00;;;;;;;;;;5000694;28;20205;-63
2021/05/27 04:28:43;;;;;;;0.30;0.30;;;;;;;;;;5000898;28;20755;-62
2021/05/27 04:31:11;;;;;;;0.30;0.30;;;;;;;;;;4997022;28;20189;-62
2021/05/27 04:33:51;;;;;;;2.13;0.50;;;;;;;;;;4997843;28;20958;-62
2021/05/27 04:36:19;;;;;;;0.33;0.23;;;;;;;;;;4999979;28;20181;-62
2021/05/27 04:38:46;;;;;;;8.60;1.80;;;;;;;;;;4999857;28;20227;-62
2021/05/27 04:41:13;;;;;;;0.10;0.10;;;;;;;;;;4999343;28;20208;-62
2021/05/27 04:43:40;;;;;;;0.30;0.30;;;;;;;;;;4999948;28;20525;-63
2021/05/27 04:46:10;;;;;;;0.00;0.00;;;;;;;;;;4999393;28;20670;-63
2021/05/27 04:48:37;;;;;;;0.60;0.60;;;;;;;;;;4997083;28;20713;-62
2021/05/27 04:51:04;;;;;;;0.10;0.10;;;;;;;;;;4999496;28;20200;-62
2021/05/27 04:53:31;;;;;;;0.00;0.00;;;;;;;;;;4998287;28;20312;-63
2021/05/27 04:55:58;;;;;;;0.20;0.10;;;;;;;;;;4999282;28;20189;-63
2021/05/27 04:58:25;;;;;;;0.73;0.73;;;;;;;;;;4996338;28;20267;-63
2021/05/27 05:00:52;;;;;;;0.00;0.00;;;;;;;;;;5001069;28;20192;-63
2021/05/27 05:03:18;;;;;;;0.13;0.13;;;;;;;;;;4997478;28;20654;-63
2021/05/27 05:05:45;;;;;;;0.00;0.00;;;;;;;;;;5001181;28;20232;-63
2021/05/27 05:08:12;;;;;;;0.20;0.20;;;;;;;;;;4999549;28;20173;-62
2021/05/27 05:10:41;;;;;;;0.00;0.00;;;;;;;;;;4996878;28;20722;-63
2021/05/27 05:13:07;;;;;;;0.00;0.00;;;;;;;;;;4995847;28;20177;-62
2021/05/27 05:15:39;;;;;;;0.00;0.00;;;;;;;;;;4996716;28;20216;-62
2021/05/27 05:18:07;;;;;;;0.00;0.00;;;;;;;;;;4996411;28;20192;-62
2021/05/27 05:20:35;;;;;;;1.70;1.37;;;;;;;;;;4997837;28;20165;-62
2021/05/27 05:23:02;;;;;;;0.00;0.00;;;;;;;;;;4998145;28;20196;-62
2021/05/27 05:25:29;;;;;;;0.00;0.00;;;;;;;;;;4997619;28;20591;-62
2021/05/27 05:27:56;;;;;;;0.17;0.17;;;;;;;;;;4998611;28;20709;-62
2021/05/27 05:30:24;;;;;;;0.10;0.00;;;;;;;;;;4999214;28;20177;-62
2021/05/27 05:32:51;;;;;;;0.00;0.00;;;;;;;;;;4998931;28;20197;-62
2021/05/27 05:35:18;;;;;;;0.93;0.30;;;;;;;;;;4999047;28;20909;-62
2021/05/27 05:37:45;;;;;;;0.20;0.20;;;;;;;;;;4998946;28;20323;-62
2021/05/27 05:40:13;;;;;;;0.50;0.37;;;;;;;;;;4998849;28;20185;-64
2021/05/27 05:42:40;;;;;;;1.20;0.43;;;;;;;;;;4998879;28;20213;-63
2021/05/27 05:45:08;;;;;;;0.30;0.10;;;;;;;;;;4996440;28;20294;-63
2021/05/27 05:47:35;;;;;;;0.00;0.00;;;;;;;;;;4999456;28;20940;-63
2021/05/27 05:50:05;;;;;;;0.27;0.27;;;;;;;;;;5000877;28;20830;-63
2021/05/27 05:52:32;;;;;;;0.00;0.00;;;;;;;;;;5002315;28;20185;-62
2021/05/27 05:54:59;;;;;;;0.00;0.00;;;;;;;;;;5002210;28;20195;-63
2021/05/27 05:57:25;;;;;;;0.00;0.00;;;;;;;;;;5002973;28;20185;-63
2021/05/27 05:59:52;;;;;;;0.00;0.00;;;;;;;;;;4997019;28;20188;-63
2021/05/27 06:02:19;;;;;;;0.10;0.10;;;;;;;;;;5002127;28;20189;-63
2021/05/27 06:04:46;;;;;;;0.00;0.00;;;;;;;;;;5003000;28;20236;-62
2021/05/27 06:07:12;;;;;;;2.27;0.63;;;;;;;;;;5003585;28;20181;-63
2021/05/27 06:09:39;;;;;;;1.97;0.97;;;;;;;;;;5001181;28;20173;-62
2021/05/27 06:12:06;;;;;;;5.63;0.33;;;;;;;;;;5002315;28;20188;-62
2021/05/27 06:14:35;;;;;;;0.20;0.20;;;;;;;;;;5002026;28;20284;-62
2021/05/27 06:17:01;;;;;;;0.00;0.00;;;;;;;;;;5002224;28;20204;-63
2021/05/27 06:19:28;;;;;;;0.03;0.03;;;;;;;;;;5002928;28;20227;-62
2021/05/27 06:21:54;;;;;;;0.07;0.07;;;;;;;;;;5001860;28;20189;-63
2021/05/27 06:24:21;;;;;;;0.10;0.10;;;;;;;;;;5002486;28;20193;-62
2021/05/27 06:26:49;;;;;;;0.00;0.00;;;;;;;;;;5003589;28;21019;-62
2021/05/27 06:29:15;;;;;;;0.00;0.00;;;;;;;;;;5001504;28;20177;-62
2021/05/27 06:31:45;;;;;;;0.00;0.00;;;;;;;;;;5005666;28;20215;-63
2021/05/27 06:34:12;;;;;;;0.00;0.00;;;;;;;;;;5002646;28;20181;-62
2021/05/27 06:36:39;;;;;;;0.00;0.00;;;;;;;;;;5004444;28;20173;-63
2021/05/27 06:39:06;;;;;;;0.10;0.10;;;;;;;;;;5000620;28;20204;-62
2021/05/27 06:41:33;;;;;;;0.00;0.00;;;;;;;;;;5002415;28;20173;-62
2021/05/27 06:44:00;;;;;;;0.00;0.00;;;;;;;;;;4998758;28;20279;-63
2021/05/27 06:46:27;;;;;;;0.37;0.37;;;;;;;;;;5001078;28;20215;-63
2021/05/27 06:48:55;;;;;;;1.30;0.57;;;;;;;;;;5001802;28;20869;-63
2021/05/27 06:51:22;;;;;;;0.00;0.00;;;;;;;;;;5000233;28;20189;-63
2021/05/27 06:53:50;;;;;;;0.20;0.20;;;;;;;;;;5001050;28;20172;-63
2021/05/27 06:56:17;;;;;;;0.40;0.40;;;;;;;;;;5001962;28;21018;-63
2021/05/27 06:58:44;;;;;;;0.30;0.30;;;;;;;;;;5001343;28;20263;-63
2021/05/27 07:01:10;;;;;;;0.00;0.00;;;;;;;;;;5002779;28;20657;-63
2021/05/27 07:03:37;;;;;;;2.33;2.23;;;;;;;;;;5001939;28;20184;-63
2021/05/27 07:06:06;;;;;;;11.77;2.10;;;;;;;;;;5001750;28;20232;-63
2021/05/27 07:08:33;;;;;;;0.67;0.67;;;;;;;;;;5002244;28;20181;-63
2021/05/27 07:11:00;;;;;;;0.30;0.30;;;;;;;;;;5001339;28;20181;-63
2021/05/27 07:13:27;;;;;;;4.90;0.50;;;;;;;;;;5001930;28;20189;-63
2021/05/27 07:15:53;;;;;;;0.00;0.00;;;;;;;;;;5001978;28;20936;-63
2021/05/27 07:18:20;;;;;;;0.10;0.10;;;;;;;;;;5002710;28;20178;-63
2021/05/27 07:20:47;;;;;;;0.20;0.20;;;;;;;;;;5000779;28;20188;-63
2021/05/27 07:23:14;;;;;;;0.00;0.00;;;;;;;;;;5001553;28;20188;-63
2021/05/27 07:25:41;;;;;;;0.00;0.00;;;;;;;;;;5000979;28;20243;-63
2021/05/27 07:28:09;;;;;;;0.00;0.00;;;;;;;;;;5000541;28;20196;-63
2021/05/27 07:30:35;;;;;;;0.00;0.00;;;;;;;;;;5000363;28;20197;-63
2021/05/27 07:33:02;;;;;;;0.00;0.00;;;;;;;;;;5001343;28;20304;-63
2021/05/27 07:35:30;;;;;;;0.00;0.00;;;;;;;;;;4997777;28;20199;-63
2021/05/27 07:37:57;;;;;;;0.00;0.00;;;;;;;;;;5001190;28;20647;-63
2021/05/27 07:40:25;;;;;;;0.00;0.00;;;;;;;;;;5000869;28;20287;-63
2021/05/27 07:42:51;;;;;;;0.10;0.10;;;;;;;;;;4996837;28;20197;-63
2021/05/27 07:45:19;;;;;;;0.03;0.03;;;;;;;;;;4999969;28;20216;-63
2021/05/27 07:47:46;;;;;;;1.03;0.23;;;;;;;;;;4992423;28;20183;-63
2021/05/27 07:50:13;;;;;;;0.00;0.00;;;;;;;;;;5001086;28;20861;-64
2021/05/27 07:52:40;;;;;;;0.00;0.00;;;;;;;;;;5000414;28;20180;-63
2021/05/27 07:55:07;;;;;;;0.00;0.00;;;;;;;;;;5000149;28;20525;-63
2021/05/27 07:57:34;;;;;;;0.73;0.40;;;;;;;;;;5001336;28;20224;-63
2021/05/27 08:00:01;;;;;;;0.00;0.00;;;;;;;;;;4999668;28;20300;-62
2021/05/27 08:02:28;;;;;;;0.00;0.00;;;;;;;;;;4999168;28;20188;-62
2021/05/27 08:04:55;;;;;;;0.00;0.00;;;;;;;;;;5002766;28;20883;-63
2021/05/27 08:07:21;;;;;;;1.13;1.07;;;;;;;;;;4996846;28;20169;-63
2021/05/27 08:09:48;;;;;;;0.00;0.00;;;;;;;;;;4999548;28;20173;-63
2021/05/27 08:12:15;;;;;;;0.00;0.00;;;;;;;;;;4996303;28;20189;-63
2021/05/27 08:14:42;;;;;;;0.00;0.00;;;;;;;;;;5000184;28;20173;-63
2021/05/27 08:17:09;;;;;;;0.00;0.00;;;;;;;;;;4999841;28;20608;-63
2021/05/27 08:19:35;;;;;;;0.33;0.33;;;;;;;;;;5000243;28;20235;-62
2021/05/27 08:22:02;;;;;;;0.00;0.00;;;;;;;;;;4998242;28;20193;-62
2021/05/27 08:24:31;;;;;;;0.97;0.37;;;;;;;;;;5000503;28;20185;-62
2021/05/27 08:26:57;;;;;;;0.00;0.00;;;;;;;;;;4999892;28;20296;-62
2021/05/27 08:29:24;;;;;;;2.27;0.10;;;;;;;;;;5000729;28;20177;-62
2021/05/27 08:31:51;;;;;;;1.13;0.53;;;;;;;;;;4999820;28;20180;-62
2021/05/27 08:34:19;;;;;;;0.00;0.00;;;;;;;;;;4999880;28;20238;-62
2021/05/27 08:36:46;;;;;;;0.00;0.00;;;;;;;;;;4999289;28;20209;-62
2021/05/27 08:39:15;;;;;;;0.00;0.00;;;;;;;;;;5000053;28;20865;-62
2021/05/27 08:41:42;;;;;;;0.03;0.03;;;;;;;;;;4998957;28;20189;-62
2021/05/27 08:44:10;;;;;;;0.00;0.00;;;;;;;;;;4999711;28;20983;-62
2021/05/27 08:46:37;;;;;;;0.00;0.00;;;;;;;;;;4999138;28;20201;-62
2021/05/27 08:49:05;;;;;;;0.00;0.00;;;;;;;;;;4999900;28;20187;-63
2021/05/27 08:51:35;;;;;;;0.00;0.00;;;;;;;;;;4998850;28;20185;-62
2021/05/27 08:54:02;;;;;;;0.97;0.10;;;;;;;;;;4997833;28;20693;-62
2021/05/27 08:56:29;;;;;;;0.00;0.00;;;;;;;;;;4999498;28;20184;-63
2021/05/27 08:58:56;;;;;;;0.20;0.20;;;;;;;;;;4999602;28;20676;-63
2021/05/27 09:01:23;;;;;;;0.00;0.00;;;;;;;;;;4999252;28;20176;-63
2021/05/27 09:03:50;;;;;;;0.10;0.10;;;;;;;;;;4992439;28;20251;-62
2021/05/27 09:06:19;;;;;;;0.10;0.10;;;;;;;;;;4999320;28;20234;-63
2021/05/27 09:08:46;;;;;;;0.00;0.00;;;;;;;;;;4996202;28;20196;-63
2021/05/27 13:31:55;;;;;;;0.00;0.00;;;;;;;;;;5057172;28;20547;-64
2021/05/27 13:34:22;;;;;;;0.27;0.13;;;;;;;;;;5056114;28;20182;-64
2021/05/27 13:36:50;;;;;;;0.73;0.33;;;;;;;;;;5050467;28;20268;-65
2021/05/27 13:39:21;;;;;;;3.93;0.53;;;;;;;;;;5061430;28;20251;-64
2021/05/27 13:41:47;;;;;;;2.43;1.70;;;;;;;;;;5051767;28;20183;-64
2021/05/27 13:44:14;;;;;;;2.03;1.10;;;;;;;;;;5056731;28;20179;-64
2021/05/27 13:46:51;;;;;;;0.00;0.00;;;;;;;;;;5056143;28;20197;-65
2021/05/27 13:49:18;;;;;;;3.10;0.20;;;;;;;;;;5054122;28;20190;-64
2021/05/27 13:51:45;;;;;;;1.73;1.37;;;;;;;;;;5056275;28;20472;-65
2021/05/27 13:54:14;;;;;;;0.40;0.40;;;;;;;;;;5053555;28;20270;-64
2021/05/27 13:56:41;;;;;;;0.40;0.37;;;;;;;;;;5049170;28;20190;-65
2021/05/27 13:59:08;;;;;;;0.00;0.00;;;;;;;;;;5050460;28;20711;-65
2021/05/27 14:01:37;;;;;;;0.33;0.33;;;;;;;;;;5039845;28;20274;-64
2021/05/27 14:04:04;;;;;;;0.00;0.00;;;;;;;;;;5048980;28;20180;-65
2021/05/27 14:06:31;;;;;;;1.60;1.50;;;;;;;;;;5052933;28;20201;-65
2021/05/27 14:08:58;;;;;;;0.67;0.10;;;;;;;;;;5056954;28;20175;-65
2021/05/27 14:11:24;;;;;;;0.37;0.37;;;;;;;;;;5057433;28;20219;-66
2021/05/27 14:13:51;;;;;;;0.00;0.00;;;;;;;;;;5057358;28;20197;-66
2021/05/27 14:16:17;;;;;;;0.00;0.00;;;;;;;;;;5057175;28;20179;-65
2021/05/27 14:18:44;;;;;;;1.87;1.60;;;;;;;;;;5056867;28;20209;-65
2021/05/27 14:21:10;;;;;;;0.03;0.03;;;;;;;;;;5056228;28;20186;-65
2021/05/27 14:23:37;;;;;;;0.00;0.00;;;;;;;;;;5057003;28;20218;-65
2021/05/27 14:26:03;;;;;;;1.97;1.10;;;;;;;;;;5055898;28;20904;-65
2021/05/27 14:28:30;;;;;;;6.27;1.33;;;;;;;;;;5048235;28;20195;-65
2021/05/27 14:30:56;;;;;;;1.07;0.70;;;;;;;;;;5038704;28;20242;-65
2021/05/27 14:33:23;;;;;;;0.30;0.30;;;;;;;;;;5037233;28;20196;-65
2021/05/27 14:35:50;;;;;;;0.50;0.40;;;;;;;;;;5037197;28;20443;-65
2021/05/27 14:38:16;;;;;;;1.77;0.70;;;;;;;;;;5048987;28;20183;-66
2021/05/27 14:40:43;;;;;;;7.33;1.23;;;;;;;;;;5056745;28;20203;-65
2021/05/27 14:43:11;;;;;;;0.00;0.00;;;;;;;;;;5044180;28;20558;-66
2021/05/27 14:45:38;;;;;;;10.60;1.30;;;;;;;;;;5043367;28;20194;-65
2021/05/27 14:48:05;;;;;;;0.40;0.30;;;;;;;;;;5043624;28;20187;-66
2021/05/27 14:50:32;;;;;;;2.57;2.23;;;;;;;;;;5043702;28;20235;-66
2021/05/27 14:53:01;;;;;;;0.00;0.00;;;;;;;;;;5043916;28;20202;-66
2021/05/27 14:55:28;;;;;;;3.10;1.07;;;;;;;;;;5042722;28;20192;-65
2021/05/27 14:57:55;;;;;;;4.60;2.67;;;;;;;;;;5042888;28;20241;-65
2021/05/27 15:00:22;;;;;;;0.00;0.00;;;;;;;;;;5043016;28;20221;-65
2021/05/27 15:02:49;;;;;;;0.20;0.13;;;;;;;;;;5043037;28;20195;-65
2021/05/27 15:05:16;;;;;;;0.40;0.37;;;;;;;;;;5043510;28;20643;-65
2021/05/27 15:07:43;;;;;;;0.00;0.00;;;;;;;;;;5043730;28;20264;-65
2021/05/27 15:10:12;;;;;;;3.37;1.30;;;;;;;;;;5043114;28;20214;-65
2021/05/27 15:12:39;;;;;;;0.40;0.23;;;;;;;;;;5042808;28;20657;-65
2021/05/27 15:15:07;;;;;;;0.93;0.93;;;;;;;;;;5042822;28;20184;-65
2021/05/27 15:17:34;;;;;;;0.13;0.10;;;;;;;;;;5043278;28;20180;-65
2021/05/27 15:20:01;;;;;;;0.00;0.00;;;;;;;;;;5043298;28;20219;-64
2021/05/27 15:22:28;;;;;;;0.40;0.20;;;;;;;;;;5042702;28;20184;-65
2021/05/27 15:24:55;;;;;;;2.77;0.80;;;;;;;;;;5039588;28;20184;-66
2021/05/27 15:27:22;;;;;;;3.37;1.80;;;;;;;;;;5037486;28;21905;-66
2021/05/27 15:29:51;;;;;;;0.00;0.00;;;;;;;;;;5043569;28;20320;-67
2021/05/27 15:32:19;;;;;;;1.30;0.63;;;;;;;;;;5054034;28;20751;-66
2021/05/27 15:34:49;;;;;;;0.73;0.60;;;;;;;;;;5043437;28;20862;-67
2021/05/27 15:37:18;;;;;;;0.00;0.00;;;;;;;;;;5031993;28;20179;-66
2021/05/27 15:39:44;;;;;;;3.30;0.87;;;;;;;;;;5034403;28;20183;-67
2021/05/27 15:42:11;;;;;;;0.67;0.40;;;;;;;;;;5032561;28;20198;-66
2021/05/27 15:44:37;;;;;;;1.07;0.93;;;;;;;;;;5035233;28;20191;-66
2021/05/27 15:47:04;;;;;;;1.83;0.57;;;;;;;;;;5035479;28;20191;-66
2021/05/27 15:49:30;;;;;;;1.80;1.17;;;;;;;;;;5027208;28;20229;-66
2021/05/27 15:51:57;;;;;;;4.90;0.77;;;;;;;;;;5034405;28;20516;-66
2021/05/27 15:54:23;;;;;;;2.47;0.90;;;;;;;;;;5032507;28;20326;-66
2021/05/27 15:56:50;;;;;;;0.83;0.53;;;;;;;;;;5024298;28;20188;-66
2021/05/27 15:59:17;;;;;;;2.00;1.60;;;;;;;;;;5031744;28;20245;-66
2021/05/27 16:01:43;;;;;;;0.00;0.00;;;;;;;;;;5022826;28;20192;-65
2021/05/27 16:04:10;;;;;;;0.73;0.73;;;;;;;;;;5034810;28;20180;-66
2021/05/27 16:06:36;;;;;;;1.60;0.53;;;;;;;;;;5032116;28;20191;-66
2021/05/27 16:09:03;;;;;;;0.00;0.00;;;;;;;;;;5041803;28;20685;-66
2021/05/27 16:11:30;;;;;;;0.43;0.20;;;;;;;;;;5028762;28;20306;-67
2021/05/27 16:13:57;;;;;;;2.47;1.23;;;;;;;;;;5029101;28;20949;-66
2021/05/27 16:16:23;;;;;;;0.93;0.63;;;;;;;;;;5032794;28;20190;-74
2021/05/27 16:18:50;;;;;;;2.20;0.87;;;;;;;;;;5032610;28;20184;-73
2021/05/27 16:21:16;;;;;;;4.47;2.40;;;;;;;;;;5032507;28;20246;-73
2021/05/27 16:23:43;;;;;;;0.00;0.00;;;;;;;;;;5032078;28;20302;-75
2021/05/27 16:26:09;;;;;;;2.70;0.10;;;;;;;;;;5036050;28;20600;-74
2021/05/27 16:28:37;;;;;;;7.33;0.40;;;;;;;;;;5030875;28;20192;-75
2021/05/27 16:31:04;;;;;;;0.10;0.00;;;;;;;;;;5032916;28;20242;-73
2021/05/27 16:33:31;;;;;;;2.27;1.03;;;;;;;;;;5032767;28;20620;-73
2021/05/27 16:38:43;;;;;;;4.43;1.60;;;;;;;;;;5032058;28;20265;-74
2021/05/27 16:41:09;;;;;;;0.20;0.20;;;;;;;;;;5037292;28;20268;-75
2021/05/27 16:43:37;;;;;;;2.13;0.63;;;;;;;;;;5032979;28;20558;-76
2021/05/27 16:46:04;;;;;;;0.87;0.50;;;;;;;;;;5031466;28;20206;-75
2021/05/27 16:48:31;;;;;;;0.00;0.00;;;;;;;;;;5026000;28;20191;-73
2021/05/27 16:50:58;;;;;;;0.50;0.33;;;;;;;;;;5021714;28;20216;-77
2021/05/27 16:53:24;;;;;;;0.40;0.27;;;;;;;;;;5029955;28;20410;-72
2021/05/27 16:55:52;;;;;;;0.53;0.50;;;;;;;;;;5025974;28;20261;-75
2021/05/27 16:58:19;;;;;;;0.00;0.00;;;;;;;;;;5029561;28;20187;-73
2021/05/27 17:00:45;;;;;;;2.27;1.03;;;;;;;;;;5032070;28;20914;-74
2021/05/27 17:03:12;;;;;;;1.50;0.93;;;;;;;;;;5031264;28;20644;-73
2021/05/27 17:05:39;;;;;;;0.93;0.30;;;;;;;;;;5026962;28;20620;-75
2021/05/27 17:08:06;;;;;;;0.00;0.00;;;;;;;;;;5027564;28;20894;-74
2021/05/27 17:10:33;;;;;;;0.53;0.17;;;;;;;;;;5021336;28;20318;-72
2021/05/27 17:12:59;;;;;;;0.10;0.10;;;;;;;;;;5032220;28;20195;-77
2021/05/27 17:15:28;;;;;;;11.80;0.57;;;;;;;;;;5039979;28;20681;-74
2021/05/27 17:17:54;;;;;;;3.10;0.73;;;;;;;;;;5021805;28;20192;-72
2021/05/27 17:20:21;;;;;;;1.70;0.77;;;;;;;;;;5034477;28;20625;-75
2021/05/27 17:22:48;;;;;;;2.33;0.40;;;;;;;;;;5030557;28;20227;-75
2021/05/27 17:25:15;;;;;;;0.00;0.00;;;;;;;;;;5040506;28;20183;-73
2021/05/27 17:27:42;;;;;;;0.17;0.17;;;;;;;;;;5039298;28;20194;-73
2021/05/27 17:30:09;;;;;;;0.20;0.20;;;;;;;;;;5039907;28;20385;-75
2021/05/27 17:32:36;;;;;;;1.77;1.67;;;;;;;;;;5039910;28;20199;-74
2021/05/27 17:35:07;;;;;;;0.10;0.10;;;;;;;;;;5040514;28;20189;-72
2021/05/27 17:37:34;;;;;;;0.00;0.00;;;;;;;;;;5039851;28;20312;-74
2021/05/27 17:40:00;;;;;;;1.80;1.13;;;;;;;;;;5045477;28;20191;-74
2021/05/27 17:42:27;;;;;;;0.10;0.10;;;;;;;;;;5039652;28;20183;-74
2021/05/27 17:44:54;;;;;;;0.37;0.27;;;;;;;;;;5039018;28;20214;-75
2021/05/27 17:47:22;;;;;;;0.30;0.30;;;;;;;;;;5039338;28;20198;-75
2021/05/27 17:49:50;;;;;;;0.00;0.00;;;;;;;;;;5039851;28;20628;-75
2021/05/27 17:52:16;;;;;;;1.80;0.87;;;;;;;;;;5040516;28;20866;-74
2021/05/27 17:54:44;;;;;;;1.83;0.37;;;;;;;;;;5040486;28;20642;-72
2021/05/27 17:57:11;;;;;;;0.37;0.37;;;;;;;;;;5043418;28;20178;-76
2021/05/27 17:59:38;;;;;;;0.97;0.97;;;;;;;;;;5053888;28;20281;-75
2021/05/27 18:02:05;;;;;;;0.20;0.20;;;;;;;;;;5057771;28;20422;-73
2021/05/27 18:04:32;;;;;;;2.97;2.00;;;;;;;;;;5040306;28;20237;-72
2021/05/27 18:06:58;;;;;;;8.67;2.03;;;;;;;;;;5040503;28;20179;-73
2021/05/27 18:09:25;;;;;;;5.27;0.77;;;;;;;;;;5040646;28;20713;-75
2021/05/27 18:11:51;;;;;;;0.00;0.00;;;;;;;;;;5040596;28;20244;-75
2021/05/27 18:14:18;;;;;;;4.67;1.20;;;;;;;;;;5039862;28;20190;-77
2021/05/27 18:16:45;;;;;;;0.57;0.30;;;;;;;;;;5041189;28;20262;-74
2021/05/27 18:19:12;;;;;;;0.40;0.27;;;;;;;;;;5044952;28;20611;-73
2021/05/27 18:21:38;;;;;;;0.47;0.47;;;;;;;;;;5058123;28;20183;-75
2021/05/27 18:24:05;;;;;;;1.30;1.20;;;;;;;;;;5045964;28;20639;-75
2021/05/27 18:26:31;;;;;;;2.43;0.40;;;;;;;;;;5043151;28;20208;-74
2021/05/27 18:28:58;;;;;;;0.53;0.37;;;;;;;;;;5043531;28;20178;-76
2021/05/27 18:31:25;;;;;;;0.73;0.73;;;;;;;;;;5042720;28;20230;-73
2021/05/27 18:33:52;;;;;;;0.00;0.00;;;;;;;;;;5043763;28;20179;-73
2021/05/27 18:36:19;;;;;;;2.50;0.70;;;;;;;;;;5041897;28;20187;-73
2021/05/27 18:38:46;;;;;;;0.00;0.00;;;;;;;;;;5043240;28;20184;-75
2021/05/27 18:41:12;;;;;;;1.53;0.10;;;;;;;;;;5040473;28;20647;-74
2021/05/27 18:43:39;;;;;;;1.60;0.63;;;;;;;;;;5039997;28;20970;-75
2021/05/27 18:46:06;;;;;;;1.83;0.87;;;;;;;;;;5042964;28;20275;-73
2021/05/27 18:48:32;;;;;;;1.13;1.13;;;;;;;;;;5043154;28;20269;-75
2021/05/27 18:50:59;;;;;;;0.77;0.77;;;;;;;;;;5043439;28;20203;-75
2021/05/27 18:53:26;;;;;;;6.30;0.80;;;;;;;;;;5043007;28;20442;-76
2021/05/27 18:55:52;;;;;;;0.20;0.20;;;;;;;;;;5041759;28;20180;-73
2021/05/27 18:58:19;;;;;;;0.10;0.07;;;;;;;;;;5041955;28;20179;-73
2021/05/27 19:00:46;;;;;;;0.53;0.53;;;;;;;;;;5041569;28;20191;-73
2021/05/27 19:03:14;;;;;;;0.00;0.00;;;;;;;;;;5042683;28;20275;-72
2021/05/27 19:05:41;;;;;;;2.73;2.40;;;;;;;;;;5043102;28;20262;-72
2021/05/27 19:08:07;;;;;;;0.00;0.00;;;;;;;;;;5043394;28;20179;-73
2021/05/27 19:10:36;;;;;;;4.37;3.00;;;;;;;;;;5042857;28;20207;-72
2021/05/27 19:13:03;;;;;;;10.20;3.20;;;;;;;;;;5043625;28;20187;-71
2021/05/27 19:15:30;;;;;;;17.63;1.43;;;;;;;;;;5042872;28;20440;-72